createdAt,value
2023-09-17T00:00:25.200Z,14.76
2023-09-17T00:01:27.055Z,14.65
2023-09-17T00:02:30.310Z,14.58
2023-09-17T00:03:32.309Z,14.55
2023-09-17T00:04:34.183Z,14.52
2023-09-17T00:05:36.017Z,14.54
2023-09-17T00:06:37.742Z,14.58
2023-09-17T00:07:39.570Z,14.58
2023-09-17T00:08:41.214Z,14.58
2023-09-17T00:09:42.820Z,14.59
2023-09-17T00:10:44.557Z,14.65
2023-09-17T00:11:46.528Z,14.69
2023-09-17T00:12:48.294Z,14.60
2023-09-17T00:13:50.222Z,14.57
2023-09-17T00:14:52.123Z,14.56
2023-09-17T00:15:53.697Z,14.54
2023-09-17T00:16:55.735Z,14.53
2023-09-17T00:17:58.848Z,14.52
2023-09-17T00:19:00.748Z,14.53
2023-09-17T00:20:02.468Z,14.55
2023-09-17T00:21:04.092Z,14.57
2023-09-17T00:22:05.669Z,14.58
2023-09-17T00:23:07.361Z,14.55
2023-09-17T00:24:09.279Z,14.45
2023-09-17T00:25:11.017Z,14.44
2023-09-17T00:26:12.717Z,14.51
2023-09-17T00:27:19.261Z,14.53
2023-09-17T00:28:20.917Z,14.54
2023-09-17T00:29:22.628Z,14.57
2023-09-17T00:30:24.233Z,14.51
2023-09-17T00:31:25.905Z,14.55
2023-09-17T00:32:27.596Z,14.55
2023-09-17T00:33:30.631Z,14.50
2023-09-17T00:34:32.332Z,14.60
2023-09-17T00:35:34.043Z,14.67
2023-09-17T00:36:35.646Z,14.65
2023-09-17T00:37:37.296Z,14.66
2023-09-17T00:38:38.904Z,14.63
2023-09-17T00:39:40.516Z,14.53
2023-09-17T00:40:42.133Z,14.47
2023-09-17T00:41:43.824Z,14.49
2023-09-17T00:42:46.009Z,14.55
2023-09-17T00:43:47.721Z,14.52
2023-09-17T00:44:49.301Z,14.50
2023-09-17T00:45:51.343Z,14.50
2023-09-17T00:46:53.124Z,14.54
2023-09-17T00:47:55.945Z,14.60
2023-09-17T00:49:00.054Z,14.66
2023-09-17T00:50:02.621Z,14.67
2023-09-17T00:51:04.438Z,14.65
2023-09-17T00:52:15.873Z,14.70
2023-09-17T00:53:17.562Z,14.71
2023-09-17T00:54:22.682Z,14.73
2023-09-17T00:55:24.406Z,14.76
2023-09-17T00:56:26.556Z,14.73
2023-09-17T00:57:28.485Z,14.63
2023-09-17T00:58:31.020Z,14.48
2023-09-17T00:59:32.748Z,14.45
2023-09-17T01:00:34.385Z,14.51
2023-09-17T01:01:36.649Z,14.58
2023-09-17T01:02:40.459Z,14.60
2023-09-17T01:03:42.232Z,14.61
2023-09-17T01:04:47.094Z,14.54
2023-09-17T01:05:48.974Z,14.50
2023-09-17T01:06:51.657Z,14.35
2023-09-17T01:07:54.674Z,14.29
2023-09-17T01:08:57.483Z,14.24
2023-09-17T01:09:59.221Z,14.17
2023-09-17T01:11:01.034Z,14.20
2023-09-17T01:12:02.914Z,14.25
2023-09-17T01:13:04.885Z,14.17
2023-09-17T01:14:07.009Z,13.94
2023-09-17T01:15:09.856Z,13.88
2023-09-17T01:16:11.721Z,13.94
2023-09-17T01:17:13.528Z,14.04
2023-09-17T01:18:15.318Z,14.12
2023-09-17T01:19:22.084Z,14.16
2023-09-17T01:20:29.928Z,14.12
2023-09-17T01:21:36.398Z,13.98
2023-09-17T01:22:43.851Z,13.89
2023-09-17T01:23:52.077Z,13.88
2023-09-17T01:25:03.373Z,13.90
2023-09-17T01:26:11.177Z,13.87
2023-09-17T01:27:16.009Z,13.80
2023-09-17T01:28:18.355Z,13.74
2023-09-17T01:44:34.043Z,13.57
2023-09-17T01:45:36.244Z,13.60
2023-09-17T01:46:40.670Z,13.62
2023-09-17T01:47:44.265Z,13.60
2023-09-17T01:48:47.081Z,13.55
2023-09-17T01:49:49.680Z,13.57
2023-09-17T01:50:52.026Z,13.63
2023-09-17T01:51:55.470Z,13.64
2023-09-17T01:52:57.680Z,13.60
2023-09-17T01:54:00.224Z,13.62
2023-09-17T01:55:02.594Z,13.62
2023-09-17T01:56:04.423Z,13.62
2023-09-17T01:57:06.145Z,13.68
2023-09-17T01:58:07.825Z,13.68
2023-09-17T01:59:09.478Z,13.65
2023-09-17T02:00:14.305Z,13.69
2023-09-17T02:01:16.008Z,13.78
2023-09-17T02:02:17.670Z,13.86
2023-09-17T02:03:19.542Z,13.94
2023-09-17T02:04:21.254Z,14.01
2023-09-17T02:05:23.879Z,14.04
2023-09-17T02:06:25.674Z,14.07
2023-09-17T02:07:27.321Z,14.06
2023-09-17T02:08:28.943Z,14.05
2023-09-17T02:09:30.577Z,14.02
2023-09-17T02:10:32.331Z,13.97
2023-09-17T02:11:34.094Z,14.00
2023-09-17T02:12:35.746Z,14.07
2023-09-17T02:13:37.353Z,14.06
2023-09-17T02:14:39.112Z,14.07
2023-09-17T02:15:42.184Z,14.11
2023-09-17T02:16:43.932Z,14.13
2023-09-17T02:17:46.000Z,14.13
2023-09-17T02:18:47.712Z,14.16
2023-09-17T02:19:49.459Z,14.12
2023-09-17T02:20:51.113Z,14.10
2023-09-17T02:21:53.029Z,14.05
2023-09-17T02:22:54.686Z,14.02
2023-09-17T02:23:56.382Z,13.93
2023-09-17T02:24:57.936Z,13.89
2023-09-17T02:25:59.546Z,13.86
2023-09-17T02:27:02.738Z,13.89
2023-09-17T02:28:04.896Z,13.89
2023-09-17T02:29:07.716Z,13.90
2023-09-17T02:30:09.790Z,13.92
2023-09-17T02:31:12.872Z,13.93
2023-09-17T02:32:14.511Z,13.90
2023-09-17T02:33:16.147Z,13.81
2023-09-17T02:34:17.784Z,13.74
2023-09-17T02:35:19.608Z,13.71
2023-09-17T02:36:21.221Z,13.63
2023-09-17T02:37:23.042Z,13.65
2023-09-17T02:38:24.704Z,13.58
2023-09-17T02:39:26.461Z,13.47
2023-09-17T02:40:28.159Z,13.46
2023-09-17T02:41:29.869Z,13.38
2023-09-17T02:42:32.983Z,13.27
2023-09-17T02:43:34.753Z,13.25
2023-09-17T02:44:36.582Z,13.25
2023-09-17T02:45:38.171Z,13.25
2023-09-17T02:46:41.398Z,13.31
2023-09-17T02:47:43.180Z,13.31
2023-09-17T02:48:44.857Z,13.23
2023-09-17T02:49:46.503Z,13.16
2023-09-17T02:50:48.184Z,13.12
2023-09-17T02:51:50.560Z,13.05
2023-09-17T02:52:52.354Z,13.06
2023-09-17T02:53:54.173Z,13.08
2023-09-17T02:54:55.870Z,13.13
2023-09-17T02:55:57.789Z,13.12
2023-09-17T02:56:59.402Z,13.12
2023-09-17T02:58:01.238Z,13.13
2023-09-17T02:59:03.102Z,13.17
2023-09-17T03:00:05.692Z,13.21
2023-09-17T03:01:14.597Z,13.24
2023-09-17T03:02:17.721Z,13.31
2023-09-17T03:03:19.685Z,13.38
2023-09-17T03:04:21.370Z,13.46
2023-09-17T03:05:22.979Z,13.41
2023-09-17T03:06:24.635Z,13.37
2023-09-17T03:07:26.334Z,13.35
2023-09-17T03:08:27.952Z,13.39
2023-09-17T03:09:30.933Z,13.42
2023-09-17T03:10:32.610Z,13.42
2023-09-17T03:11:34.305Z,13.32
2023-09-17T03:12:37.447Z,13.18
2023-09-17T03:13:39.169Z,13.14
2023-09-17T03:14:41.215Z,13.15
2023-09-17T03:15:44.578Z,13.14
2023-09-17T03:16:48.321Z,13.17
2023-09-17T03:17:52.998Z,13.23
2023-09-17T03:18:57.368Z,13.21
2023-09-17T03:19:59.050Z,13.23
2023-09-17T03:21:05.975Z,13.19
2023-09-17T03:22:07.539Z,12.85
2023-09-17T03:23:10.007Z,12.83
2023-09-17T03:24:13.365Z,12.86
2023-09-17T03:25:16.483Z,12.86
2023-09-17T03:26:22.021Z,12.87
2023-09-17T03:27:23.693Z,13.06
2023-09-17T03:28:25.874Z,13.09
2023-09-17T03:29:27.672Z,13.18
2023-09-17T03:30:29.737Z,13.29
2023-09-17T03:31:33.387Z,13.36
2023-09-17T03:32:36.657Z,13.41
2023-09-17T03:33:45.564Z,13.40
2023-09-17T03:34:47.621Z,13.35
2023-09-17T03:35:49.454Z,13.28
2023-09-17T03:36:51.140Z,13.24
2023-09-17T03:37:53.832Z,13.25
2023-09-17T03:38:55.615Z,13.28
2023-09-17T03:40:07.463Z,13.35
2023-09-17T03:41:11.125Z,13.34
2023-09-17T03:42:14.120Z,13.33
2023-09-17T03:43:17.646Z,13.29
2023-09-17T03:44:20.858Z,13.19
2023-09-17T03:45:24.280Z,13.19
2023-09-17T03:46:28.107Z,13.24
2023-09-17T03:47:30.289Z,13.25
2023-09-17T03:48:32.444Z,13.22
2023-09-17T03:49:35.490Z,13.21
2023-09-17T03:50:37.262Z,13.15
2023-09-17T03:51:38.884Z,13.12
2023-09-17T03:52:43.275Z,13.01
2023-09-17T03:53:45.037Z,12.95
2023-09-17T03:54:47.315Z,12.86
2023-09-17T03:55:49.200Z,12.62
2023-09-17T03:56:51.042Z,12.46
2023-09-17T03:57:52.947Z,12.40
2023-09-17T03:58:56.395Z,12.44
2023-09-17T03:59:59.129Z,12.40
2023-09-17T04:01:00.787Z,12.43
2023-09-17T04:02:02.718Z,12.42
2023-09-17T04:03:05.091Z,12.46
2023-09-17T04:04:06.892Z,12.57
2023-09-17T04:05:11.384Z,12.61
2023-09-17T04:06:14.221Z,12.68
2023-09-17T04:07:16.370Z,12.67
2023-09-17T04:08:18.180Z,12.70
2023-09-17T04:09:20.140Z,12.70
2023-09-17T04:10:21.879Z,12.64
2023-09-17T04:11:24.695Z,12.43
2023-09-17T04:12:26.299Z,12.33
2023-09-17T04:13:27.944Z,12.40
2023-09-17T04:14:31.049Z,12.41
2023-09-17T04:15:32.863Z,12.41
2023-09-17T04:16:34.856Z,12.38
2023-09-17T04:17:36.655Z,12.34
2023-09-17T04:18:38.463Z,12.37
2023-09-17T04:19:40.086Z,12.44
2023-09-17T04:20:43.263Z,12.51
2023-09-17T04:21:44.903Z,12.52
2023-09-17T04:22:48.630Z,12.49
2023-09-17T04:23:50.556Z,12.44
2023-09-17T04:24:52.380Z,12.39
2023-09-17T04:25:56.986Z,12.45
2023-09-17T04:26:58.689Z,12.48
2023-09-17T04:28:00.401Z,12.52
2023-09-17T04:29:03.520Z,12.54
2023-09-17T04:30:08.628Z,12.55
2023-09-17T04:31:10.481Z,12.55
2023-09-17T04:32:12.236Z,12.56
2023-09-17T04:33:14.216Z,12.54
2023-09-17T04:34:16.186Z,12.59
2023-09-17T04:35:19.226Z,12.48
2023-09-17T04:36:23.500Z,12.46
2023-09-17T04:37:28.053Z,12.45
2023-09-17T04:38:29.735Z,12.51
2023-09-17T04:39:32.383Z,12.53
2023-09-17T04:40:34.307Z,12.59
2023-09-17T04:41:40.283Z,12.62
2023-09-17T04:42:43.860Z,12.63
2023-09-17T04:43:48.627Z,12.61
2023-09-17T04:44:50.763Z,12.62
2023-09-17T04:45:52.385Z,12.61
2023-09-17T04:46:58.933Z,12.58
2023-09-17T04:48:00.828Z,12.58
2023-09-17T04:49:03.408Z,12.59
2023-09-17T04:50:08.254Z,12.58
2023-09-17T04:51:10.571Z,12.59
2023-09-17T04:52:14.288Z,12.64
2023-09-17T04:53:16.211Z,12.62
2023-09-17T04:54:19.583Z,12.62
2023-09-17T04:55:21.236Z,12.63
2023-09-17T04:56:25.942Z,12.64
2023-09-17T04:57:27.914Z,12.72
2023-09-17T04:58:30.677Z,12.76
2023-09-17T04:59:35.148Z,12.80
2023-09-17T05:00:37.907Z,12.85
2023-09-17T05:01:40.783Z,12.85
2023-09-17T05:02:42.698Z,12.79
2023-09-17T05:03:45.298Z,12.75
2023-09-17T05:04:47.191Z,12.72
2023-09-17T05:05:49.428Z,12.73
2023-09-17T05:06:51.065Z,12.81
2023-09-17T05:07:54.379Z,12.71
2023-09-17T05:08:56.251Z,12.57
2023-09-17T05:09:58.012Z,12.59
2023-09-17T05:10:59.605Z,12.65
2023-09-17T05:12:01.498Z,12.76
2023-09-17T05:13:03.339Z,12.84
2023-09-17T05:14:05.116Z,12.87
2023-09-17T05:15:07.549Z,12.90
2023-09-17T05:16:09.942Z,12.94
2023-09-17T05:17:11.855Z,12.97
2023-09-17T05:18:13.714Z,12.99
2023-09-17T05:19:19.733Z,13.00
2023-09-17T05:20:21.471Z,12.95
2023-09-17T05:21:23.208Z,12.92
2023-09-17T05:22:24.941Z,12.92
2023-09-17T05:23:28.107Z,12.93
2023-09-17T05:24:35.690Z,12.85
2023-09-17T05:25:37.521Z,12.75
2023-09-17T05:26:39.625Z,12.69
2023-09-17T05:27:41.266Z,12.68
2023-09-17T05:28:43.049Z,12.70
2023-09-17T05:29:46.118Z,12.81
2023-09-17T05:30:47.744Z,12.89
2023-09-17T05:31:49.476Z,12.86
2023-09-17T05:32:51.451Z,12.90
2023-09-17T05:33:53.562Z,12.74
2023-09-17T05:34:58.058Z,12.84
2023-09-17T05:35:59.695Z,12.95
2023-09-17T05:37:03.043Z,12.96
2023-09-17T05:38:05.097Z,12.92
2023-09-17T05:39:08.106Z,12.98
2023-09-17T05:40:10.637Z,13.02
2023-09-17T05:41:12.289Z,13.11
2023-09-17T05:42:14.182Z,13.15
2023-09-17T05:43:16.156Z,13.23
2023-09-17T05:44:17.889Z,13.28
2023-09-17T05:45:19.790Z,13.30
2023-09-17T05:46:21.506Z,13.34
2023-09-17T05:47:24.140Z,13.36
2023-09-17T05:48:25.985Z,13.38
2023-09-17T05:49:28.112Z,13.39
2023-09-17T05:50:30.022Z,13.44
2023-09-17T05:51:31.679Z,13.45
2023-09-17T05:52:33.358Z,13.48
2023-09-17T05:53:35.400Z,13.54
2023-09-17T05:54:38.588Z,13.61
2023-09-17T05:55:40.485Z,13.68
2023-09-17T05:56:42.115Z,13.67
2023-09-17T05:57:44.219Z,13.65
2023-09-17T05:58:46.423Z,13.61
2023-09-17T05:59:48.125Z,13.61
2023-09-17T06:00:50.349Z,13.53
2023-09-17T06:01:52.169Z,13.53
2023-09-17T06:02:53.855Z,13.52
2023-09-17T06:03:55.774Z,13.53
2023-09-17T06:04:59.048Z,13.54
2023-09-17T06:06:02.688Z,13.57
2023-09-17T06:07:05.313Z,13.65
2023-09-17T06:08:07.040Z,13.70
2023-09-17T06:09:08.827Z,13.70
2023-09-17T06:10:12.512Z,13.70
2023-09-17T06:11:14.256Z,13.75
2023-09-17T06:12:15.928Z,13.82
2023-09-17T06:13:17.643Z,13.88
2023-09-17T06:14:19.411Z,13.96
2023-09-17T06:15:21.551Z,14.04
2023-09-17T06:16:23.514Z,14.12
2023-09-17T06:17:25.456Z,14.18
2023-09-17T06:18:30.067Z,14.23
2023-09-17T06:19:31.763Z,14.30
2023-09-17T06:20:33.478Z,14.34
2023-09-17T06:21:35.228Z,14.38
2023-09-17T06:22:36.856Z,14.43
2023-09-17T06:23:39.242Z,14.48
2023-09-17T06:24:41.818Z,14.55
2023-09-17T06:25:44.864Z,14.59
2023-09-17T06:26:46.506Z,14.66
2023-09-17T06:27:48.185Z,14.74
2023-09-17T06:28:49.803Z,14.68
2023-09-17T06:29:52.787Z,14.70
2023-09-17T06:30:56.997Z,14.73
2023-09-17T06:32:00.505Z,14.78
2023-09-17T06:33:03.911Z,14.94
2023-09-17T06:34:06.491Z,15.05
2023-09-17T06:35:08.851Z,14.94
2023-09-17T06:36:10.849Z,14.80
2023-09-17T06:37:12.596Z,14.84
2023-09-17T06:38:14.320Z,15.00
2023-09-17T06:39:16.129Z,14.87
2023-09-17T06:40:18.321Z,15.01
2023-09-17T06:41:21.809Z,14.82
2023-09-17T06:42:23.719Z,14.59
2023-09-17T06:43:26.505Z,14.84
2023-09-17T06:44:28.324Z,15.01
2023-09-17T06:45:30.848Z,15.00
2023-09-17T06:46:33.456Z,15.00
2023-09-17T06:47:35.545Z,15.17
2023-09-17T06:48:37.365Z,15.29
2023-09-17T06:49:39.119Z,15.21
2023-09-17T06:50:40.905Z,15.31
2023-09-17T06:51:42.561Z,15.25
2023-09-17T06:52:44.283Z,15.44
2023-09-17T06:53:46.358Z,15.46
2023-09-17T06:54:48.023Z,15.64
2023-09-17T06:55:49.813Z,15.86
2023-09-17T06:56:52.947Z,15.72
2023-09-17T06:57:54.782Z,15.59
2023-09-17T06:58:58.304Z,15.76
2023-09-17T07:00:00.027Z,15.98
2023-09-17T07:01:01.797Z,15.83
2023-09-17T07:02:03.583Z,15.95
2023-09-17T07:03:05.830Z,16.07
2023-09-17T07:04:09.152Z,16.19
2023-09-17T07:05:12.480Z,16.31
2023-09-17T07:06:14.610Z,16.37
2023-09-17T07:07:16.711Z,16.45
2023-09-17T07:08:18.656Z,16.61
2023-09-17T07:09:20.396Z,16.68
2023-09-17T07:10:22.073Z,16.64
2023-09-17T07:11:23.913Z,16.67
2023-09-17T07:12:27.410Z,16.73
2023-09-17T07:13:29.079Z,16.50
2023-09-17T07:14:33.645Z,16.43
2023-09-17T07:15:35.265Z,16.28
2023-09-17T07:16:37.080Z,16.45
2023-09-17T07:17:38.893Z,16.52
2023-09-17T07:18:40.606Z,16.68
2023-09-17T07:19:42.441Z,16.69
2023-09-17T07:20:44.060Z,16.88
2023-09-17T07:21:45.693Z,17.08
2023-09-17T07:22:47.651Z,17.29
2023-09-17T07:23:49.576Z,17.38
2023-09-17T07:24:51.419Z,17.54
2023-09-17T07:25:53.177Z,17.52
2023-09-17T07:26:55.056Z,17.66
2023-09-17T07:27:58.038Z,17.70
2023-09-17T07:28:59.753Z,17.80
2023-09-17T07:30:01.411Z,17.90
2023-09-17T07:31:03.200Z,18.02
2023-09-17T07:32:05.709Z,18.18
2023-09-17T07:33:08.260Z,18.30
2023-09-17T07:34:11.122Z,18.38
2023-09-17T07:35:12.841Z,18.49
2023-09-17T07:36:14.588Z,18.57
2023-09-17T07:37:16.479Z,18.68
2023-09-17T07:38:18.209Z,18.68
2023-09-17T07:39:19.952Z,18.65
2023-09-17T07:40:21.759Z,18.52
2023-09-17T07:41:23.582Z,18.34
2023-09-17T07:42:25.290Z,18.24
2023-09-17T07:43:28.322Z,18.38
2023-09-17T07:44:29.910Z,18.56
2023-09-17T07:45:31.676Z,18.74
2023-09-17T07:46:33.588Z,18.84
2023-09-17T07:47:35.291Z,18.48
2023-09-17T07:48:36.954Z,18.45
2023-09-17T07:49:39.049Z,18.61
2023-09-17T07:50:40.774Z,18.77
2023-09-17T07:51:45.500Z,18.93
2023-09-17T07:52:47.173Z,19.06
2023-09-17T07:53:48.953Z,19.21
2023-09-17T07:54:50.958Z,19.24
2023-09-17T07:55:53.169Z,19.33
2023-09-17T07:56:54.798Z,19.11
2023-09-17T07:57:56.694Z,18.95
2023-09-17T07:58:59.788Z,19.16
2023-09-17T08:00:01.475Z,19.26
2023-09-17T08:01:06.229Z,19.32
2023-09-17T08:02:08.197Z,19.49
2023-09-17T08:03:10.699Z,19.66
2023-09-17T08:04:12.631Z,19.81
2023-09-17T08:05:14.551Z,19.74
2023-09-17T08:06:16.343Z,19.84
2023-09-17T08:07:18.426Z,19.98
2023-09-17T08:08:20.072Z,20.08
2023-09-17T08:09:21.777Z,20.22
2023-09-17T08:10:23.656Z,20.29
2023-09-17T08:11:27.505Z,20.37
2023-09-17T08:12:29.168Z,20.47
2023-09-17T08:13:30.924Z,20.58
2023-09-17T08:14:34.717Z,20.65
2023-09-17T08:15:36.286Z,20.54
2023-09-17T08:16:38.489Z,20.50
2023-09-17T08:17:40.257Z,20.48
2023-09-17T08:18:42.203Z,20.60
2023-09-17T08:19:43.845Z,20.76
2023-09-17T08:20:45.713Z,20.85
2023-09-17T08:21:47.351Z,20.84
2023-09-17T08:22:50.055Z,20.82
2023-09-17T08:23:51.870Z,20.90
2023-09-17T08:24:53.755Z,20.97
2023-09-17T08:25:55.428Z,21.12
2023-09-17T08:26:57.656Z,21.04
2023-09-17T08:27:59.558Z,21.09
2023-09-17T08:29:01.226Z,21.05
2023-09-17T08:30:05.615Z,20.56
2023-09-17T08:31:07.249Z,20.60
2023-09-17T08:32:08.823Z,20.64
2023-09-17T08:33:10.523Z,20.78
2023-09-17T08:34:12.582Z,20.70
2023-09-17T08:35:14.710Z,20.46
2023-09-17T08:36:16.511Z,20.27
2023-09-17T08:37:18.204Z,20.40
2023-09-17T08:38:19.900Z,20.58
2023-09-17T08:39:21.963Z,20.49
2023-09-17T08:40:28.509Z,20.80
2023-09-17T08:41:31.682Z,20.93
2023-09-17T08:42:33.599Z,20.66
2023-09-17T08:43:35.562Z,20.66
2023-09-17T08:44:38.934Z,20.47
2023-09-17T08:45:43.253Z,20.65
2023-09-17T08:46:45.835Z,20.86
2023-09-17T08:47:47.657Z,20.95
2023-09-17T08:48:49.688Z,20.83
2023-09-17T08:49:51.394Z,20.97
2023-09-17T08:50:54.336Z,20.89
2023-09-17T08:51:57.873Z,20.75
2023-09-17T08:53:03.105Z,20.78
2023-09-17T08:54:08.619Z,20.98
2023-09-17T08:55:27.930Z,21.14
2023-09-17T08:56:31.827Z,21.40
2023-09-17T08:57:39.987Z,21.42
2023-09-17T08:58:47.758Z,21.44
2023-09-17T08:59:55.028Z,21.45
2023-09-17T09:01:04.022Z,21.40
2023-09-17T09:02:22.790Z,21.24
2023-09-17T09:03:27.326Z,21.30
2023-09-17T09:04:32.787Z,21.42
2023-09-17T09:05:35.012Z,21.61
2023-09-17T09:06:38.149Z,21.83
2023-09-17T09:07:40.545Z,21.95
2023-09-17T09:08:43.689Z,21.97
2023-09-17T09:09:46.062Z,22.12
2023-09-17T09:10:49.620Z,22.25
2023-09-17T09:11:51.149Z,22.26
2023-09-17T09:12:53.304Z,22.15
2023-09-17T09:13:56.092Z,22.21
2023-09-17T09:14:58.608Z,22.37
2023-09-17T09:16:01.864Z,22.60
2023-09-17T09:17:03.814Z,22.43
2023-09-17T09:18:06.166Z,22.55
2023-09-17T09:19:08.007Z,22.17
2023-09-17T09:20:11.978Z,22.15
2023-09-17T09:21:13.862Z,22.45
2023-09-17T09:22:15.462Z,22.43
2023-09-17T09:23:17.396Z,22.53
2023-09-17T09:24:19.053Z,22.63
2023-09-17T09:25:20.718Z,22.39
2023-09-17T09:26:23.552Z,22.48
2023-09-17T09:27:25.324Z,22.77
2023-09-17T09:28:30.915Z,23.18
2023-09-17T09:29:32.516Z,23.28
2023-09-17T09:30:36.768Z,23.41
2023-09-17T09:31:39.888Z,23.38
2023-09-17T09:32:42.732Z,23.38
2023-09-17T09:33:45.097Z,23.53
2023-09-17T09:34:48.106Z,23.71
2023-09-17T09:35:49.932Z,23.70
2023-09-17T09:36:51.995Z,23.64
2023-09-17T09:37:53.901Z,23.70
2023-09-17T09:38:56.539Z,23.61
2023-09-17T09:39:58.990Z,23.72
2023-09-17T09:41:00.875Z,23.61
2023-09-17T09:42:02.686Z,23.25
2023-09-17T09:43:04.744Z,23.56
2023-09-17T09:44:08.889Z,23.70
2023-09-17T09:45:32.877Z,23.83
2023-09-17T09:48:14.352Z,24.32
2023-09-17T09:49:16.036Z,24.49
2023-09-17T09:50:24.820Z,24.63
2023-09-17T09:51:26.613Z,24.60
2023-09-17T09:52:28.340Z,24.37
2023-09-17T09:53:29.946Z,24.07
2023-09-17T09:54:31.543Z,24.04
2023-09-17T09:55:33.585Z,24.08
2023-09-17T09:56:35.539Z,24.08
2023-09-17T09:57:40.181Z,24.45
2023-09-17T09:58:44.015Z,24.75
2023-09-17T09:59:48.326Z,24.97
2023-09-17T10:00:50.116Z,25.11
2023-09-17T10:01:52.027Z,25.11
2023-09-17T10:02:55.588Z,25.23
2023-09-17T10:03:58.551Z,25.28
2023-09-17T10:05:00.375Z,25.47
2023-09-17T10:06:03.469Z,25.42
2023-09-17T10:07:05.615Z,25.50
2023-09-17T10:08:09.180Z,25.75
2023-09-17T10:09:11.040Z,25.93
2023-09-17T10:10:12.938Z,25.89
2023-09-17T10:11:16.009Z,25.88
2023-09-17T10:12:18.250Z,26.03
2023-09-17T10:13:21.768Z,26.24
2023-09-17T10:14:48.367Z,26.37
2023-09-17T10:15:48.437Z,26.21
2023-09-17T10:16:50.860Z,26.32
2023-09-17T10:17:52.907Z,25.92
2023-09-17T10:18:57.189Z,25.29
2023-09-17T10:20:03.567Z,25.37
2023-09-17T10:21:06.284Z,25.64
2023-09-17T10:22:09.719Z,25.76
2023-09-17T10:23:13.496Z,25.54
2023-09-17T10:24:16.277Z,25.61
2023-09-17T10:25:19.071Z,25.62
2023-09-17T10:26:22.953Z,25.74
2023-09-17T10:27:25.072Z,25.61
2023-09-17T10:28:27.616Z,25.49
2023-09-17T10:29:31.961Z,25.10
2023-09-17T10:30:33.939Z,25.03
2023-09-17T10:31:37.373Z,25.37
2023-09-17T10:32:39.910Z,25.41
2023-09-17T10:33:44.852Z,25.57
2023-09-17T10:34:48.603Z,25.30
2023-09-17T10:35:52.053Z,25.51
2023-09-17T10:36:55.862Z,25.76
2023-09-17T10:38:01.984Z,26.15
2023-09-17T10:39:04.169Z,26.14
2023-09-17T10:40:08.961Z,26.03
2023-09-17T10:41:11.801Z,26.24
2023-09-17T10:42:14.581Z,25.85
2023-09-17T10:43:18.537Z,25.74
2023-09-17T10:44:21.406Z,25.68
2023-09-17T10:45:26.837Z,25.73
2023-09-17T10:46:32.019Z,25.52
2023-09-17T10:47:34.501Z,25.79
2023-09-17T10:48:37.625Z,25.36
2023-09-17T10:49:40.154Z,25.36
2023-09-17T10:50:43.803Z,25.46
2023-09-17T10:51:47.242Z,25.00
2023-09-17T10:52:49.966Z,25.25
2023-09-17T10:53:53.151Z,25.57
2023-09-17T10:54:54.906Z,25.86
2023-09-17T10:56:01.331Z,26.04
2023-09-17T10:57:08.080Z,25.88
2023-09-17T10:58:16.941Z,25.51
2023-09-17T10:59:20.334Z,25.46
2023-09-17T11:00:24.174Z,25.55
2023-09-17T11:01:30.989Z,25.98
2023-09-17T11:02:35.628Z,26.33
2023-09-17T11:03:41.186Z,26.24
2023-09-17T11:04:45.086Z,26.14
2023-09-17T11:05:49.098Z,26.39
2023-09-17T11:06:52.190Z,26.60
2023-09-17T11:07:58.447Z,26.36
2023-09-17T11:09:00.247Z,26.49
2023-09-17T11:10:02.332Z,26.50
2023-09-17T11:11:04.130Z,26.27
2023-09-17T11:12:09.310Z,26.19
2023-09-17T11:13:14.534Z,26.40
2023-09-17T11:14:17.015Z,26.23
2023-09-17T11:15:19.337Z,26.64
2023-09-17T11:16:22.328Z,26.90
2023-09-17T11:17:31.031Z,26.71
2023-09-17T11:18:34.407Z,26.26
2023-09-17T11:19:39.701Z,26.27
2023-09-17T11:21:08.348Z,27.05
2023-09-17T11:22:12.957Z,27.34
2023-09-17T11:23:16.043Z,27.14
2023-09-17T11:24:20.945Z,27.81
2023-09-17T11:25:34.431Z,27.84
2023-09-17T11:26:38.378Z,28.36
2023-09-17T11:29:10.327Z,28.52
2023-09-17T11:30:16.073Z,27.35
2023-09-17T11:31:19.139Z,28.15
2023-09-17T11:32:24.126Z,27.09
2023-09-17T11:33:28.485Z,26.64
2023-09-17T11:34:31.815Z,27.12
2023-09-17T11:35:33.719Z,27.63
2023-09-17T11:36:37.659Z,27.85
2023-09-17T11:37:39.312Z,28.35
2023-09-17T11:38:45.873Z,29.04
2023-09-17T11:39:52.390Z,29.17
2023-09-17T11:41:08.193Z,28.97
2023-09-17T11:42:12.668Z,29.07
2023-09-17T11:43:14.576Z,27.74
2023-09-17T11:44:17.052Z,27.74
2023-09-17T11:45:18.818Z,27.53
2023-09-17T11:46:21.562Z,27.33
2023-09-17T11:47:27.939Z,27.53
2023-09-17T11:48:34.481Z,27.97
2023-09-17T11:49:36.675Z,28.29
2023-09-17T11:50:38.830Z,28.57
2023-09-17T11:51:50.352Z,28.56
2023-09-17T11:53:03.430Z,28.73
2023-09-17T11:54:06.567Z,28.98
2023-09-17T11:55:25.538Z,28.77
2023-09-17T11:56:30.503Z,28.48
2023-09-17T11:57:32.306Z,28.81
2023-09-17T11:58:36.291Z,28.93
2023-09-17T12:00:01.509Z,28.90
2023-09-17T12:01:07.821Z,28.54
2023-09-17T12:02:10.599Z,27.98
2023-09-17T12:03:13.599Z,28.30
2023-09-17T12:04:19.271Z,28.41
2023-09-17T12:05:23.149Z,27.98
2023-09-17T12:06:29.376Z,28.16
2023-09-17T12:09:35.577Z,28.80
2023-09-17T12:10:49.713Z,28.38
2023-09-17T12:11:05.632Z,28.59
2023-09-17T12:12:18.171Z,28.49
2023-09-17T12:13:22.322Z,28.53
2023-09-17T12:14:28.512Z,28.43
2023-09-17T12:15:34.180Z,28.47
2023-09-17T12:16:36.124Z,28.26
2023-09-17T12:17:55.659Z,28.05
2023-09-17T12:19:18.567Z,27.62
2023-09-17T12:20:41.894Z,27.15
2023-09-17T12:21:55.923Z,27.51
2023-09-17T12:23:23.103Z,27.50
2023-09-17T12:25:01.916Z,27.97
2023-09-17T12:26:52.906Z,27.62
2023-09-17T12:28:47.797Z,26.81
2023-09-17T12:29:50.041Z,27.20
2023-09-17T12:30:55.090Z,27.30
2023-09-17T12:31:57.204Z,27.53
2023-09-17T12:33:00.010Z,27.90
2023-09-17T12:34:01.673Z,28.11
2023-09-17T12:35:03.690Z,27.90
2023-09-17T12:36:08.387Z,27.72
2023-09-17T12:37:10.031Z,27.93
2023-09-17T12:38:12.989Z,28.01
2023-09-17T12:39:14.968Z,28.06
2023-09-17T12:40:16.771Z,28.21
2023-09-17T12:41:28.211Z,28.54
2023-09-17T12:42:37.708Z,28.83
2023-09-17T12:43:39.567Z,28.95
2023-09-17T12:44:41.278Z,28.90
2023-09-17T12:45:42.991Z,28.91
2023-09-17T12:46:45.026Z,28.84
2023-09-17T12:47:46.917Z,29.24
2023-09-17T12:48:48.726Z,29.84
2023-09-17T12:49:50.382Z,30.52
2023-09-17T12:50:52.105Z,30.25
2023-09-17T12:51:54.168Z,30.24
2023-09-17T12:52:55.939Z,30.65
2023-09-17T12:53:59.284Z,30.63
2023-09-17T12:55:01.168Z,30.56
2023-09-17T12:56:04.453Z,30.74
2023-09-17T12:57:07.108Z,30.51
2023-09-17T12:58:08.987Z,31.35
2023-09-17T12:59:10.637Z,32.38
2023-09-17T13:00:13.430Z,32.81
2023-09-17T13:01:15.454Z,32.51
2023-09-17T13:02:17.195Z,32.84
2023-09-17T13:03:19.255Z,32.72
2023-09-17T13:04:21.035Z,32.89
2023-09-17T13:05:23.011Z,32.85
2023-09-17T13:06:26.661Z,32.78
2023-09-17T13:07:31.720Z,32.98
2023-09-17T13:08:33.474Z,31.57
2023-09-17T13:09:36.606Z,31.85
2023-09-17T13:10:38.752Z,32.26
2023-09-17T13:11:40.469Z,32.98
2023-09-17T13:12:44.773Z,33.16
2023-09-17T13:13:47.392Z,33.79
2023-09-17T13:14:49.482Z,33.90
2023-09-17T13:15:51.342Z,33.65
2023-09-17T13:16:53.382Z,33.53
2023-09-17T13:17:56.210Z,31.72
2023-09-17T13:18:57.990Z,31.75
2023-09-17T13:19:59.997Z,32.22
2023-09-17T13:21:01.783Z,32.33
2023-09-17T13:22:03.875Z,32.22
2023-09-17T13:23:05.522Z,32.04
2023-09-17T13:24:12.628Z,31.16
2023-09-17T13:25:16.635Z,31.48
2023-09-17T13:26:18.637Z,31.49
2023-09-17T13:27:22.848Z,31.93
2023-09-17T13:28:24.695Z,32.83
2023-09-17T13:29:34.672Z,33.66
2023-09-17T13:30:38.876Z,34.11
2023-09-17T13:31:41.347Z,34.01
2023-09-17T13:32:43.122Z,34.18
2023-09-17T13:33:45.778Z,34.05
2023-09-17T13:34:48.327Z,33.84
2023-09-17T13:35:51.245Z,33.43
2023-09-17T13:36:53.020Z,33.01
2023-09-17T13:37:54.745Z,33.11
2023-09-17T13:38:56.563Z,33.59
2023-09-17T13:39:58.178Z,32.75
2023-09-17T13:41:01.384Z,32.68
2023-09-17T13:42:03.472Z,33.67
2023-09-17T13:43:05.738Z,34.75
2023-09-17T13:44:07.645Z,35.65
2023-09-17T13:45:09.881Z,35.87
2023-09-17T13:46:16.210Z,35.38
2023-09-17T13:47:17.863Z,35.29
2023-09-17T13:48:19.478Z,34.73
2023-09-17T13:49:21.128Z,34.95
2023-09-17T13:50:22.774Z,34.71
2023-09-17T13:51:24.384Z,34.75
2023-09-17T13:52:26.006Z,34.08
2023-09-17T13:53:27.696Z,34.01
2023-09-17T13:54:29.306Z,34.02